60.4F
Current conditions from King Hill
Updated every 5 minutes
 
  Friday August 14, 2020

Observations for Westford

Westford

44° 37' 38"N, 73° 02' 29"W, Elevation 850 ft.
Eastern Time

Hourly observations for the last 72 hours

Date Time Temperature (°F) Humi-
dity

(%)
Wind
(mph)
Pressure Rain (in)
Air Dew 6 Hour 1 Hr 3 Hr 6 Hr Day
Alt
(in)
Sea
Level

(mb)
Max Min
14 00:00 60.8 59.7 96 Calm 30.07 1018.2 0.00
13 23:00 62.2 61.0 96 Calm 30.08 1018.5 0.00
13 22:00 62.8 61.3 95 Calm 30.08 1018.6 0.00
13 21:00 63.6 61.5 93 Calm 30.08 1018.5 0.00
13 20:00 68.5 63.5 84.1 68.5 84 Calm 30.06 1018.1 0.00
13 19:00 77.3 66.8 70 Calm 30.05 1017.5 0.00
13 18:00 81.0 69.5 68 Calm 30.05 1017.7 0.00
13 17:00 82.5 68.2 62 W 0 G 3 30.06 1017.9 0.00
13 16:00 83.8 66.5 56 W 1 G 6 30.06 1018.0 0.00
13 15:00 81.4 66.7 61 W 1 G 7 30.08 1018.5 0.00
13 14:00 80.3 68.4 81.7 64.3 67 W 2 G 7 30.08 1018.7 0.00
13 13:00 80.6 67.8 65 WSW 0 G 3 30.09 1018.9 0.00
13 12:00 78.0 69.4 75 W 0 G 3 30.09 1019.1 0.00
13 11:00 78.5 66.6 67 Calm 30.10 1019.5 0.00
13 10:00 74.5 69.0 83 W 0 G 2 30.10 1019.4 0.00
13 09:00 71.6 68.2 89 Calm 30.10 1019.4 0.00
13 08:00 64.3 64.0 64.3 57.5 99 Calm 30.10 1019.3 0.00
13 07:00 58.7 58.1 98 Calm 30.09 1019.2 0.00
13 06:00 57.6 56.8 97 Calm 30.09 1019.0 0.00
13 05:00 57.8 57.0 97 Calm 30.07 1018.3 0.00
13 04:00 58.1 57.3 97 Calm 30.07 1018.2 0.00
13 03:00 58.7 57.9 97 Calm 30.06 1018.0 0.00
13 02:00 59.0 58.2 69.0 58.9 97 Calm 30.06 1017.9 0.00
13 01:00 59.3 58.2 96 Calm 30.05 1017.5 0.00
13 00:00 60.1 58.7 95 Calm 30.04 1017.4 0.03
12 23:00 60.6 58.9 94 Calm 30.04 1017.3 0.03
12 22:00 61.3 59.3 93 Calm 30.03 1017.1 0.03
12 21:00 62.8 59.2 88 Calm 30.02 1016.7 0.03
12 20:00 69.0 63.3 84.8 68.9 82 Calm 30.01 1016.2 0.03
12 19:00 76.5 67.2 73 Calm 29.99 1015.6 0.03
12 18:00 83.0 68.2 61 Calm 29.98 1015.3 0.03
12 17:00 84.1 64.6 52 W 0 G 3 29.98 1015.3 0.03
12 16:00 83.3 68.0 60 W 0 G 7 29.98 1015.1 0.03
12 15:00 83.8 68.0 59 W 1 G 3 29.98 1015.1 0.03
12 14:00 81.8 67.5 81.8 69.0 62 WSW 1 G 5 29.98 1015.3 0.03
12 13:00 79.8 68.3 68 SW 2 G 7 29.98 1015.4 0.03
12 12:00 79.1 70.1 74 W 4 G 10 29.98 1015.3 0.03
12 11:00 77.1 70.1 79 W 6 G 13 29.98 1015.2 0.03
12 10:00 74.5 70.0 86 SW 3 G 12 29.97 1015.0 0.03
12 09:00 73.6 71.1 92 SSW 2 G 8 29.96 1014.6 0.03
12 08:00 69.0 68.4 69.4 65.4 98 S 0 G 3 29.95 1014.3 0.03
12 06:00 65.6 65.0 98 Calm 29.92 1013.4 0.03
12 05:00 66.6 66.0 98 Calm 29.91 1012.8 0.03
12 04:00 66.1 64.9 96 Calm 29.90 1012.4 0.03
12 03:00 67.9 67.0 97 S 0 G 3 29.88 1011.7 0.03
12 02:00 69.4 68.5 72.4 68.1 97 S 0 G 8 29.85 1010.9 0.03 0.03 0.04 0.03
12 01:00 69.3 68.7 98 S 0 G 4 29.84 1010.4 0.00
12 00:00 68.1 66.9 96 S 0 G 1 29.82 1010.0 0.26
11 23:00 69.6 68.4 96 S 0 G 3 29.81 1009.5 0.01 0.26
11 22:00 70.6 69.4 96 S 0 G 6 29.81 1009.6 0.26
11 21:00 70.1 68.0 93 S 0 G 2 29.79 1008.7 0.01 0.26
11 20:00 72.4 69.0 88.1 72.4 89 SW 0 G 8 29.76 1007.8 0.25 0.25 0.25 0.25
11 19:00 80.4 68.5 67 SSE 1 G 8 29.74 1007.2 0.00
11 18:00 84.7 70.7 63 S 2 G 13 29.75 1007.6 0.00
11 17:00 86.7 70.2 58 SE 3 G 15 29.76 1007.7 0.00
11 16:00 85.2 72.1 65 SSE 1 G 8 29.76 1007.7 0.00
11 15:00 87.7 72.6 61 S 3 G 13 29.76 1008.0 0.00
11 14:00 86.8 73.2 87.0 73.9 64 E 2 G 14 29.78 1008.6 0.00
11 13:00 85.6 74.7 70 SW 0 G 8 29.81 1009.4 0.00
11 12:00 84.8 75.2 73 S 1 G 14 29.83 1010.2 0.00
11 11:00 82.4 72.9 73 SSE 3 G 15 29.84 1010.7 0.00
11 10:00 80.0 71.0 74 SSE 4 G 17 29.86 1011.2 0.00
11 09:00 77.4 71.5 82 S 1 G 15 29.87 1011.4 0.00
11 08:00 73.9 69.8 73.9 67.7 87 S 3 G 8 29.87 1011.4 0.00
11 07:00 69.0 66.6 92 S 1 G 11 29.87 1011.6 0.00
11 06:00 68.0 66.2 94 S 1 G 11 29.87 1011.5 0.00
11 05:00 68.0 66.2 94 S 0 G 8 29.86 1011.1 0.00
11 04:00 68.5 66.4 93 S 2 G 11 29.85 1010.8 0.00
11 03:00 67.8 66.0 94 S 2 G 9 29.86 1011.2 0.00
11 02:00 68.2 66.1 74.1 66.4 93 S 2 G 7 29.86 1011.2 0.00
11 01:00 67.6 65.8 94 SSW 1 G 7 29.88 1011.8 0.00

Data generated by WxSolution Version 1.9.1.7, Build 2018.11.24.


 
 
Current Radar Loop:

Copyright © WestfordWeather.net 2007-2020. All rights reserved.